AirNav   $300 off a Bose A20 aviation headset
 
 437 users online  

63CL G3 Ranch Airport
Capay, California, USA

GOING TO CAPAY?


FAA INFORMATION EFFECTIVE 28 FEBRUARY 2019

Location

FAA Identifier: 63CL
Lat/Long: 38-42-59.6520N / 122-08-18.9040W
38-42.994200N / 122-08.315067W
38.7165700 / -122.1385844
(estimated)
Elevation: 360 ft. / 110 m (estimated)
Variation: 16E (1985)
From city: 4 miles W of CAPAY, CA
Time zone: UTC -8 (UTC -7 during Daylight Saving Time)
Zip code: 95607

Airport Operations

Airport use: Private use. Permission required prior to landing
Activation date: 08/1970
Control tower: no
ARTCC: OAKLAND CENTER
FSS: RANCHO MURIETA FLIGHT SERVICE STATION
Attendance: UNATNDD
Wind indicator: no
Segmented circle: no

Airport Communications

WX AWOS-3 at DWA (16 nm SE): 125.775 (530-750-2759)
WX AWOS-3 at EDU (20 nm SE): 119.025 (530-754-6839)

Nearby radio navigation aids

VOR radial/distance  VOR name  Freq  Var
ILAr176/21.9WILLIAMS VORTAC114.4018E
SACr284/32.0SACRAMENTO VORTAC115.2017E
STSr052/33.9SANTA ROSA VOR/DME113.0016E
SGDr002/34.1SCAGGS ISLAND VORTAC112.1017E
MCCr258/34.5MC CLELLAN VOR/DME109.2017E
MYVr213/35.0MARYSVILLE VOR/DME110.8016E

Airport Services

Airframe service: NONE
Powerplant service: NONE

Runway Information

Runway NW/SE

Dimensions: 2800 x 110 ft. / 853 x 34 m
Surface: turf
RUNWAY NW  RUNWAY SE
Traffic pattern: leftleft
Obstructions: plinepline, 60 ft. from runway

Airport Ownership and Management from official FAA records

Ownership: Privately-owned
Owner: C. M. GORDON
19725 RD 78A
CAPAY, CA 95607
Phone 916-796-4486
Manager: BOB GORDON
P. O. BOX 113
BROOKS, CA 95606
Phone (530) 908-9241

Instrument Procedures

There are no published instrument procedures at 63CL.

Some nearby airports with instrument procedures:

O41 - Watts-Woodland Airport (13 nm E)
KDWA - Yolo County Airport (16 nm SE)
KEDU - University Airport (20 nm SE)
KVCB - Nut Tree Airport (22 nm S)
KSMF - Sacramento International Airport (26 nm E)
 
Loc | Ops | Rwys | IFR | FBO | Links
Com | Nav | Svcs | Stats | Notes

Sonoma Jet Center
 
Area around 63CL (G3 Ranch Airport)
 
Road maps at: MapQuest Bing Google
 
Aerial photo
No photo
 
Sectional chart

 
Airport distance calculator
Flying to G3 Ranch Airport? Find the distance to fly.

From to 63CL

Sunrise and sunset
Times for 20-Mar-2019
 Local
(UTC-7)
 Zulu
(UTC)
Morning civil twilight06:4613:46
Sunrise07:1314:13
Sunset19:1902:19
Evening civil twilight19:4602:46

Current date and time
Zulu (UTC)  20-Mar-2019 10:41:15
Local (UTC-7)  20-Mar-2019 03:41:15
 
METAR
KEDU 
20nm SE 
201015Z AUTO 11008KT 10SM BKN041 OVC050 11/10 A2991 RMK AO1
KVCB 
22nm SE 
201017Z AUTO 12007KT 5SM +RA BR FEW010 BKN026 OVC033 11/10 A2991 RMK AO2 RAB13 P0002 T01060100
KSMF 
25nm E 
200953Z 11008KT 10SM -RA FEW035 OVC065 11/10 A2991 RMK AO2 SLP127 P0003 T01110100
KSUU 
29nm S 
201019Z AUTO 12009KT 5SM -RA BR FEW003 SCT008 BKN012 BKN022 BKN028 OVC038 11/09 A2990 RMK AO2 RAB02 CIG 008V028 SLP132 $
KAPC 
32nm S 
201019Z AUTO 10008KT 6SM -RA BR FEW014 BKN035 OVC050 12/10 A2988 RMK AO2 P0003 T01170100
KSAC 
33nm SE 
200953Z AUTO 10007KT 10SM -RA FEW049 SCT055 OVC070 11/09 A2992 RMK AO2 SLP131 P0000 T01060094
KSTS 
34nm W 
707-573-8393
200953Z AUTO 09004KT 10SM -RA SCT060 OVC080 11/09 A2985 RMK AO2 SLP101 P0002 T01060094
KMCC 
35nm E 
201015Z AUTO 11011KT 10SM OVC065 11/10 A2994 RMK AO2
KO69 
35nm SW 
201015Z AUTO 09004KT 9SM BKN013 BKN020 OVC036 11/11 A2986 RMK A01
KMYV 
35nm NE 
201017Z AUTO 13010KT 8SM -RA SCT008 BKN046 OVC065 11/09 A2993 RMK AO2 P0005 T01110094
TAF
KSMF 
25nm E 
200528Z 2006/2106 24012KT P6SM -SHRA SCT100 OVC150 FM200800 17005KT P6SM -RA BKN050 OVC100 FM201100 15011KT P6SM SHRA FEW025 OVC050 FM202100 19008KT P6SM SHRA VCTS BKN035CB FM210200 20004KT P6SM BKN100
KSUU 
29nm S 
200300Z 2003/2109 25015G25KT 9999 SCT070 BKN100 QNH2975INS BECMG 2005/2006 24015G25KT 9999 VCSH SCT020 BKN040 610805 QNH2975INS BECMG 2011/2012 15010G15KT 9999 -SHRA BKN020 610755 QNH2974INS BECMG 2015/2016 13012G18KT 9000 -SHRA BKN030 610705 QNH2982INS BECMG 2100/2101 21010G15KT 9000 -SHRA SCT020 BKN030 610655 QNH2986INS TX25/2022Z TN09/2012Z
NOTAMs
Click for the latest NOTAMs
NOTAMs are issued by the DoD/FAA and will open in a separate window not controlled by AirNav.

 

 
 

Would you like to see your business listed on this page?

 If your business provides an interesting product or service to pilots, flight crews, aircraft, or users of the G3 Ranch Airport, you should consider listing it here.  To start the listing process, click on the button below
 
Add a business
 

Other Pages about G3 Ranch Airport

Update a link
 
Copyright © AirNav, LLC. All rights reserved. Privacy Policy  Contact